Time;durP1;ratioP1;P1;durP2;ratioP2;P2;SDS_P1;SDS_P2;PMS_P1;PMS_P2;Temp;Humidity;BMP_temperature;BMP_pressure;BME280_temperature;BME280_humidity;BME280_pressure;Samples;Min_cycle;Max_cycle;Signal;HPM_P1;HPM_P2
2023/06/27 00:01:17;;;;;;;5.50;2.13;;;14.30;99.90;;;;;;5031661;28;20382;-76
2023/06/27 00:03:42;;;;;;;5.05;2.17;;;14.20;99.90;;;;;;5045240;28;20044;-75
2023/06/27 00:06:08;;;;;;;7.65;2.20;;;14.20;99.90;;;;;;5017295;28;20040;-74
2023/06/27 00:08:34;;;;;;;7.07;2.67;;;14.20;99.90;;;;;;5029648;28;20067;-73
2023/06/27 00:11:00;;;;;;;3.67;2.40;;;14.20;99.90;;;;;;5048733;28;20033;-73
2023/06/27 00:13:26;;;;;;;3.90;2.17;;;14.10;99.90;;;;;;5049314;28;20072;-76
2023/06/27 00:15:52;;;;;;;3.70;2.30;;;14.20;99.90;;;;;;5049447;28;20045;-75
2023/06/27 00:18:21;;;;;;;5.38;2.50;;;14.10;99.90;;;;;;5052086;28;20098;-76
2023/06/27 00:20:50;;;;;;;5.18;2.25;;;14.10;99.90;;;;;;5036640;28;20048;-73
2023/06/27 00:23:33;;;;;;;3.00;2.17;;;14.00;99.90;;;;;;5047468;28;20041;-71
2023/06/27 00:26:00;;;;;;;3.88;2.40;;;14.00;99.90;;;;;;5026667;28;20482;-72
2023/06/27 00:28:26;;;;;;;3.90;2.25;;;14.00;99.90;;;;;;5030778;28;20044;-75
2023/06/27 00:30:52;;;;;;;6.18;3.10;;;14.00;99.90;;;;;;5026201;28;20052;-73
2023/06/27 00:33:17;;;;;;;5.80;3.00;;;14.00;99.90;;;;;;5026446;28;20451;-74
2023/06/27 00:35:43;;;;;;;6.15;3.00;;;14.00;99.90;;;;;;5045779;28;20044;-73
2023/06/27 00:38:09;;;;;;;7.28;2.70;;;13.90;99.90;;;;;;5028790;28;20041;-73
2023/06/27 00:40:34;;;;;;;5.57;2.80;;;13.90;99.90;;;;;;5042015;28;20067;-74
2023/06/27 00:43:00;;;;;;;3.35;2.50;;;13.90;99.90;;;;;;5034875;28;20036;-73
2023/06/27 00:45:26;;;;;;;3.97;2.90;;;13.90;99.90;;;;;;5027124;28;20124;-74
2023/06/27 00:47:56;;;;;;;6.13;2.80;;;13.90;99.90;;;;;;5044268;28;20037;-72
2023/06/27 00:50:24;;;;;;;8.05;3.13;;;13.90;99.90;;;;;;5058123;28;20044;-74
2023/06/27 00:52:51;;;;;;;4.65;2.65;;;13.80;99.90;;;;;;5042651;28;20081;-71
2023/06/27 00:55:17;;;;;;;4.43;2.95;;;13.80;99.90;;;;;;5028299;28;20670;-72
2023/06/27 00:57:46;;;;;;;5.35;2.75;;;13.90;99.90;;;;;;5043943;28;20045;-73
2023/06/27 01:00:13;;;;;;;5.18;3.20;;;13.80;99.90;;;;;;5053126;28;20115;-70
2023/06/27 01:02:39;;;;;;;6.05;3.25;;;13.90;99.90;;;;;;5017869;28;20463;-72
2023/06/27 01:05:06;;;;;;;5.95;3.35;;;13.80;99.90;;;;;;5048523;28;20036;-71
2023/06/27 01:07:47;;;;;;;5.85;3.40;;;13.90;99.90;;;;;;5045256;28;20079;-75
2023/06/27 01:10:21;;;;;;;8.48;4.00;;;13.80;99.90;;;;;;5028153;28;20163;-79
2023/06/27 01:12:57;;;;;;;6.15;3.40;;;13.80;99.90;;;;;;5039162;28;20041;-76
2023/06/27 01:15:23;;;;;;;6.72;3.70;;;13.80;99.90;;;;;;5046561;28;20088;-73
2023/06/27 01:17:50;;;;;;;6.00;3.30;;;13.80;99.90;;;;;;5047107;28;20076;-76
2023/06/27 01:20:18;;;;;;;4.22;3.58;;;13.80;99.90;;;;;;5027716;28;20183;-73
2023/06/27 01:22:53;;;;;;;8.68;3.80;;;13.80;99.90;;;;;;5047516;28;20053;-73
2023/06/27 01:25:19;;;;;;;7.60;3.85;;;13.90;99.90;;;;;;5036283;28;20048;-73
2023/06/27 01:27:44;;;;;;;7.35;4.07;;;13.80;99.90;;;;;;5046659;28;20025;-77
2023/06/27 01:30:10;;;;;;;5.53;3.60;;;13.80;99.90;;;;;;5020275;28;20119;-75
2023/06/27 01:32:50;;;;;;;5.13;4.07;;;13.70;99.90;;;;;;5036341;28;20037;-74
2023/06/27 01:35:29;;;;;;;6.57;3.50;;;13.80;99.90;;;;;;5043711;28;20416;-73
2023/06/27 01:38:02;;;;;;;6.90;3.53;;;13.80;99.90;;;;;;5027394;28;20488;-75
2023/06/27 01:40:31;;;;;;;5.00;3.65;;;13.80;99.90;;;;;;5044589;28;20033;-74
2023/06/27 01:43:03;;;;;;;6.68;3.60;;;13.80;99.90;;;;;;5045364;28;20094;-76
2023/06/27 01:45:29;;;;;;;6.85;3.45;;;13.80;99.90;;;;;;5051375;28;20455;-74
2023/06/27 01:47:55;;;;;;;7.10;3.90;;;13.80;99.90;;;;;;5033742;28;20062;-74
2023/06/27 01:50:21;;;;;;;7.00;3.92;;;13.70;99.90;;;;;;5044163;28;20045;-74
2023/06/27 01:52:47;;;;;;;7.20;3.60;;;13.80;99.90;;;;;;5052581;28;20706;-75
2023/06/27 01:55:13;;;;;;;6.47;3.65;;;13.80;99.90;;;;;;5031159;28;20413;-75
2023/06/27 01:57:38;;;;;;;5.95;3.65;;;13.70;99.90;;;;;;5047465;28;20048;-74
2023/06/27 02:00:06;;;;;;;5.68;3.92;;;13.70;99.90;;;;;;5028559;28;20037;-75
2023/06/27 02:02:32;;;;;;;9.07;3.85;;;13.80;99.90;;;;;;5032831;28;20124;-73
2023/06/27 02:04:58;;;;;;;6.03;4.63;;;13.80;99.90;;;;;;5052856;28;20112;-75
2023/06/27 02:07:24;;;;;;;4.38;3.88;;;13.80;99.90;;;;;;5032153;28;20079;-74
2023/06/27 02:09:49;;;;;;;8.70;4.00;;;13.80;99.90;;;;;;5051518;28;20443;-74
2023/06/27 02:12:15;;;;;;;6.38;3.95;;;13.80;99.90;;;;;;5031473;28;20587;-75
2023/06/27 02:14:41;;;;;;;5.75;4.43;;;13.80;99.90;;;;;;5057171;28;20044;-77
2023/06/27 02:17:08;;;;;;;4.68;3.83;;;13.80;99.90;;;;;;5035027;28;20068;-74
2023/06/27 02:19:33;;;;;;;5.15;3.83;;;13.80;99.90;;;;;;5026482;28;20041;-74
2023/06/27 02:21:59;;;;;;;6.38;4.80;;;13.80;99.90;;;;;;5047389;28;20040;-71
2023/06/27 02:24:25;;;;;;;6.22;3.83;;;13.80;99.90;;;;;;5037030;28;20056;-74
2023/06/27 02:26:50;;;;;;;5.18;3.88;;;13.80;99.90;;;;;;5038540;28;20485;-72
2023/06/27 02:29:16;;;;;;;7.68;4.35;;;13.80;99.90;;;;;;5047565;28;20052;-71
2023/06/27 02:31:42;;;;;;;9.88;4.25;;;13.80;99.90;;;;;;5048645;28;20053;-75
2023/06/27 02:34:07;;;;;;;8.60;4.18;;;13.80;99.90;;;;;;5030809;28;20051;-73
2023/06/27 02:36:33;;;;;;;7.25;4.43;;;13.80;99.90;;;;;;5027484;28;20084;-73
2023/06/27 02:39:00;;;;;;;6.55;4.20;;;13.80;99.90;;;;;;5038463;28;20103;-75
2023/06/27 02:41:26;;;;;;;7.90;4.15;;;13.80;99.90;;;;;;5046991;28;20037;-77
2023/06/27 02:43:52;;;;;;;4.85;4.00;;;13.80;99.90;;;;;;5048753;28;20117;-76
2023/06/27 02:46:18;;;;;;;7.10;4.53;;;13.80;99.90;;;;;;5039473;28;20044;-75
2023/06/27 02:48:44;;;;;;;9.40;4.05;;;13.80;99.90;;;;;;5050842;28;20037;-75
2023/06/27 02:51:10;;;;;;;7.10;4.18;;;13.80;99.90;;;;;;5016934;28;20461;-75
2023/06/27 02:53:35;;;;;;;5.53;4.13;;;13.80;99.90;;;;;;5031484;28;20029;-76
2023/06/27 02:56:03;;;;;;;7.20;4.10;;;13.80;99.90;;;;;;5046221;28;20529;-75
2023/06/27 02:58:32;;;;;;;8.77;4.00;;;13.80;99.90;;;;;;5049030;28;20533;-75
2023/06/27 03:01:03;;;;;;;6.60;4.20;;;13.80;99.90;;;;;;5048646;28;20037;-77
2023/06/27 03:03:29;;;;;;;6.28;4.00;;;13.80;99.90;;;;;;5049275;28;20076;-74
2023/06/27 03:05:55;;;;;;;5.07;3.90;;;13.80;99.90;;;;;;5046653;28;20522;-74
2023/06/27 03:08:20;;;;;;;6.63;3.90;;;13.80;99.90;;;;;;5018293;28;20059;-74
2023/06/27 03:10:46;;;;;;;10.57;4.68;;;13.80;99.90;;;;;;5047537;28;20032;-73
2023/06/27 03:13:12;;;;;;;6.05;4.35;;;13.80;99.90;;;;;;5030855;28;20051;-76
2023/06/27 03:15:38;;;;;;;6.88;4.20;;;13.80;99.90;;;;;;5036242;28;20110;-75
2023/06/27 03:18:03;;;;;;;10.25;4.32;;;13.80;99.90;;;;;;5049788;28;20042;-74
2023/06/27 03:20:29;;;;;;;7.68;4.32;;;13.80;99.90;;;;;;5034432;28;20497;-75
2023/06/27 03:22:55;;;;;;;6.50;4.25;;;13.90;99.90;;;;;;5050368;28;20049;-72
2023/06/27 03:25:21;;;;;;;8.52;4.32;;;13.80;99.90;;;;;;5047822;28;20049;-75
2023/06/27 03:27:46;;;;;;;6.50;3.92;;;13.80;99.90;;;;;;5052098;28;20044;-75
2023/06/27 03:30:13;;;;;;;5.65;4.10;;;13.80;99.90;;;;;;5030263;28;20451;-74
2023/06/27 03:32:39;;;;;;;5.88;4.20;;;13.80;99.90;;;;;;5049269;28;20036;-77
2023/06/27 03:35:05;;;;;;;6.72;4.47;;;13.80;99.90;;;;;;4998831;28;20040;-74
2023/06/27 03:37:31;;;;;;;6.53;4.00;;;13.90;99.90;;;;;;5071128;28;20049;-73
2023/06/27 03:39:57;;;;;;;5.88;3.45;;;13.90;99.90;;;;;;5045680;28;20111;-74
2023/06/27 03:42:23;;;;;;;6.65;4.15;;;13.90;99.90;;;;;;5061126;28;20119;-77
2023/06/27 03:44:49;;;;;;;6.13;3.53;;;13.90;99.90;;;;;;5031762;28;20037;-74
2023/06/27 03:47:14;;;;;;;7.13;4.10;;;13.90;99.90;;;;;;5025190;28;20044;-75
2023/06/27 03:49:40;;;;;;;4.88;3.58;;;13.90;99.90;;;;;;5040944;28;20052;-76
2023/06/27 03:52:06;;;;;;;5.20;3.72;;;13.90;99.90;;;;;;5010292;28;20052;-75
2023/06/27 03:54:32;;;;;;;8.85;4.13;;;13.80;99.90;;;;;;5021306;28;20048;-76
2023/06/27 03:56:57;;;;;;;8.70;3.97;;;13.90;99.90;;;;;;5023987;28;20136;-77
2023/06/27 03:59:23;;;;;;;5.82;3.65;;;13.90;99.90;;;;;;5006408;28;20594;-76
2023/06/27 04:01:49;;;;;;;8.10;3.88;;;14.00;99.90;;;;;;5009420;28;21577;-76
2023/06/27 04:04:14;;;;;;;7.55;3.60;;;13.90;99.90;;;;;;5043662;28;20063;-74
2023/06/27 04:06:40;;;;;;;4.93;3.15;;;14.00;99.90;;;;;;5042111;28;20727;-73
2023/06/27 04:09:06;;;;;;;6.50;3.55;;;14.10;99.90;;;;;;5044297;28;20045;-77
2023/06/27 04:11:32;;;;;;;7.53;4.07;;;14.00;99.90;;;;;;5027963;28;20428;-75
2023/06/27 04:14:01;;;;;;;5.22;3.95;;;14.10;99.90;;;;;;5027399;28;20112;-77
2023/06/27 04:16:27;;;;;;;5.45;3.38;;;14.10;99.90;;;;;;5014387;28;20535;-75
2023/06/27 04:18:53;;;;;;;5.50;3.55;;;14.20;99.90;;;;;;5042418;28;20041;-74
2023/06/27 04:21:20;;;;;;;7.35;4.00;;;14.20;99.90;;;;;;5067588;28;20039;-76
2023/06/27 04:23:46;;;;;;;6.43;3.88;;;14.30;99.90;;;;;;5043847;28;20057;-73
2023/06/27 04:26:15;;;;;;;5.07;3.88;;;14.30;99.90;;;;;;5029640;28;20037;-74
2023/06/27 04:28:50;;;;;;;6.50;3.70;;;14.40;99.90;;;;;;5045052;28;20098;-77
2023/06/27 04:31:15;;;;;;;8.43;4.43;;;14.50;99.90;;;;;;5042020;28;20048;-74
2023/06/27 04:33:41;;;;;;;4.28;3.40;;;14.50;99.90;;;;;;5027279;28;20036;-77
2023/06/27 04:36:08;;;;;;;7.00;3.47;;;14.50;99.90;;;;;;5030027;28;20123;-77
2023/06/27 04:38:37;;;;;;;7.68;3.75;;;14.60;99.90;;;;;;5028096;28;20045;-77
2023/06/27 04:41:12;;;;;;;7.80;3.65;;;14.60;99.90;;;;;;5047519;28;20047;-75
2023/06/27 04:43:41;;;;;;;4.53;3.22;;;14.70;99.90;;;;;;5044239;28;20051;-75
2023/06/27 04:46:07;;;;;;;4.47;3.58;;;14.70;99.90;;;;;;5046045;28;20032;-75
2023/06/27 04:48:33;;;;;;;7.57;3.40;;;14.90;99.90;;;;;;5044688;28;20100;-73
2023/06/27 04:50:59;;;;;;;6.40;3.20;;;14.90;99.90;;;;;;5029543;28;20052;-75
2023/06/27 04:53:25;;;;;;;6.80;3.58;;;15.00;99.90;;;;;;5044165;28;20044;-74
2023/06/27 04:55:52;;;;;;;4.93;3.13;;;15.00;99.90;;;;;;5043721;28;20644;-74
2023/06/27 04:58:21;;;;;;;5.53;3.50;;;15.10;99.90;;;;;;5041140;28;20064;-76
2023/06/27 05:00:47;;;;;;;5.78;3.25;;;15.20;99.90;;;;;;5025782;28;20076;-75
2023/06/27 05:03:14;;;;;;;5.45;3.28;;;15.20;99.90;;;;;;5029366;28;20147;-73
2023/06/27 05:05:40;;;;;;;4.05;2.97;;;15.30;99.90;;;;;;5024672;28;20435;-77
2023/06/27 05:08:07;;;;;;;5.43;2.95;;;15.30;99.90;;;;;;5009187;28;20103;-75
2023/06/27 05:10:33;;;;;;;5.43;3.50;;;15.40;99.90;;;;;;5047537;28;20094;-75
2023/06/27 05:13:00;;;;;;;5.88;2.83;;;15.50;99.90;;;;;;5047858;28;20073;-76
2023/06/27 05:15:26;;;;;;;5.55;3.45;;;15.50;99.90;;;;;;5036464;28;20045;-77
2023/06/27 05:18:14;;;;;;;4.60;2.78;;;15.60;99.90;;;;;;5033973;28;20552;-75
2023/06/27 05:20:46;;;;;;;7.00;3.00;;;15.70;99.90;;;;;;5011105;28;20052;-76
2023/06/27 05:23:12;;;;;;;7.20;2.90;;;15.80;99.90;;;;;;5014186;28;20124;-74
2023/06/27 05:25:38;;;;;;;7.53;2.67;;;15.90;99.90;;;;;;5019353;28;20127;-77
2023/06/27 05:28:04;;;;;;;5.18;2.47;;;16.00;99.90;;;;;;5006696;28;20033;-79
2023/06/27 05:30:31;;;;;;;4.55;2.25;;;15.60;99.90;;;;;;5006730;28;20037;-77
2023/06/27 05:33:06;;;;;;;5.80;2.30;;;16.20;99.90;;;;;;5025327;28;20045;-75
2023/06/27 05:35:32;;;;;;;6.68;2.83;;;16.40;99.90;;;;;;5014971;28;20044;-75
2023/06/27 05:37:59;;;;;;;4.15;2.08;;;16.60;99.90;;;;;;5014708;28;20037;-75
2023/06/27 05:40:24;;;;;;;4.80;2.22;;;16.70;99.90;;;;;;5039073;28;20048;-77
2023/06/27 05:42:50;;;;;;;5.75;2.10;;;16.90;99.90;;;;;;5028415;28;20166;-75
2023/06/27 05:45:16;;;;;;;6.15;2.03;;;16.90;99.90;;;;;;5014732;28;20072;-73
2023/06/27 05:47:43;;;;;;;7.28;1.90;;;16.90;99.90;;;;;;5030358;28;20052;-74
2023/06/27 05:50:09;;;;;;;3.83;1.65;;;17.00;99.90;;;;;;5047820;28;20067;-74
2023/06/27 05:52:35;;;;;;;6.45;1.70;;;17.10;99.90;;;;;;4997700;28;20157;-75
2023/06/27 05:55:01;;;;;;;6.13;1.67;;;17.30;99.90;;;;;;5044665;28;20076;-75
2023/06/27 05:57:26;;;;;;;9.88;2.67;;;17.40;99.90;;;;;;5013629;28;20045;-75
2023/06/27 05:59:52;;;;;;;4.55;1.70;;;17.60;99.90;;;;;;5038380;28;20041;-72
2023/06/27 06:02:18;;;;;;;5.53;2.10;;;17.70;99.90;;;;;;5030091;28;20052;-77
2023/06/27 06:04:44;;;;;;;3.08;1.35;;;17.80;99.90;;;;;;5018016;28;20063;-73
2023/06/27 06:07:10;;;;;;;4.18;1.80;;;17.80;99.90;;;;;;5049118;28;21084;-76
2023/06/27 06:09:35;;;;;;;6.70;1.80;;;17.90;99.90;;;;;;5048697;28;20163;-73
2023/06/27 06:12:01;;;;;;;5.35;1.77;;;18.00;99.90;;;;;;5047657;28;20044;-76
2023/06/27 06:14:27;;;;;;;3.28;1.85;;;18.20;99.90;;;;;;5047176;28;20071;-75
2023/06/27 06:16:53;;;;;;;5.75;2.20;;;18.20;99.90;;;;;;5017805;28;20063;-75
2023/06/27 06:19:19;;;;;;;5.05;1.63;;;18.20;99.90;;;;;;5046976;28;20048;-73
2023/06/27 06:21:45;;;;;;;6.10;2.25;;;18.40;99.90;;;;;;5032264;28;20041;-69
2023/06/27 06:24:10;;;;;;;8.05;2.13;;;18.50;99.90;;;;;;5010043;28;20483;-75
2023/06/27 06:26:37;;;;;;;4.72;1.65;;;18.60;99.90;;;;;;5058131;28;20040;-75
2023/06/27 06:29:08;;;;;;;6.25;1.70;;;18.70;99.90;;;;;;5016163;28;20033;-74
2023/06/27 06:31:34;;;;;;;4.88;1.48;;;18.80;99.90;;;;;;5049046;28;20429;-72
2023/06/27 06:33:59;;;;;;;5.22;1.83;;;18.80;99.90;;;;;;5015145;28;20061;-71
2023/06/27 06:36:25;;;;;;;6.57;1.63;;;19.00;99.90;;;;;;5040225;28;20056;-72
2023/06/27 06:38:51;;;;;;;4.88;1.80;;;19.00;99.90;;;;;;5026612;28;20059;-72
2023/06/27 06:41:18;;;;;;;7.63;1.60;;;19.30;99.90;;;;;;5047614;28;20090;-75
2023/06/27 06:43:44;;;;;;;4.95;1.75;;;19.30;99.90;;;;;;5032179;28;20039;-75
2023/06/27 06:46:10;;;;;;;6.88;1.73;;;19.60;99.90;;;;;;5048947;28;20120;-72
2023/06/27 06:48:36;;;;;;;5.70;1.42;;;19.80;99.90;;;;;;5042828;28;20035;-72
2023/06/27 06:51:02;;;;;;;5.85;1.40;;;20.00;99.90;;;;;;5058023;28;20045;-72
2023/06/27 06:53:27;;;;;;;3.83;1.50;;;20.00;99.90;;;;;;5030172;28;20103;-74
2023/06/27 06:55:53;;;;;;;6.05;1.38;;;20.20;99.90;;;;;;5029784;28;20036;-74
2023/06/27 06:58:19;;;;;;;7.53;1.52;;;20.30;99.90;;;;;;5048606;28;21561;-71
2023/06/27 07:00:45;;;;;;;4.40;1.20;;;20.50;99.90;;;;;;5047399;28;20049;-72
2023/06/27 07:03:11;;;;;;;3.92;1.15;;;20.60;99.90;;;;;;5062833;28;20092;-73
2023/06/27 07:05:37;;;;;;;5.25;1.83;;;20.70;99.90;;;;;;5035360;28;20071;-75
2023/06/27 07:08:06;;;;;;;4.30;1.35;;;20.90;99.90;;;;;;5043976;28;20041;-74
2023/06/27 07:10:32;;;;;;;3.38;1.40;;;21.10;99.90;;;;;;4997003;28;20428;-72
2023/06/27 07:12:59;;;;;;;5.38;1.42;;;20.90;99.90;;;;;;5024163;28;20064;-73
2023/06/27 07:15:26;;;;;;;5.72;1.70;;;21.40;99.90;;;;;;5047319;28;20147;-73
2023/06/27 07:17:52;;;;;;;3.78;1.23;;;21.60;99.90;;;;;;5049402;28;20051;-74
2023/06/27 07:20:19;;;;;;;4.72;1.30;;;21.40;99.90;;;;;;5030720;28;20033;-72
2023/06/27 07:22:46;;;;;;;5.65;1.35;;;21.30;99.90;;;;;;5049075;28;20056;-74
2023/06/27 07:25:11;;;;;;;5.22;1.95;;;21.70;99.90;;;;;;5048602;28;20530;-75
2023/06/27 07:27:37;;;;;;;3.90;1.50;;;21.60;99.90;;;;;;5032443;28;20044;-75
2023/06/27 07:30:04;;;;;;;2.42;1.17;;;21.70;99.90;;;;;;5040359;28;20051;-73
2023/06/27 07:32:29;;;;;;;8.07;1.55;;;21.50;99.90;;;;;;5045506;28;20132;-73
2023/06/27 07:34:55;;;;;;;3.75;1.67;;;21.40;99.90;;;;;;5040286;28;20127;-76
2023/06/27 07:37:21;;;;;;;3.65;1.10;;;21.00;99.90;;;;;;5059658;28;20103;-75
2023/06/27 07:39:46;;;;;;;4.47;1.50;;;20.70;99.90;;;;;;5030159;28;20119;-75
2023/06/27 07:42:12;;;;;;;5.03;1.60;;;20.50;99.90;;;;;;5031454;28;20112;-74
2023/06/27 07:44:38;;;;;;;3.88;1.20;;;20.50;99.90;;;;;;5022231;28;20593;-71
2023/06/27 07:47:04;;;;;;;3.97;1.30;;;20.30;99.90;;;;;;5047590;28;20041;-78
2023/06/27 07:49:31;;;;;;;3.45;1.40;;;20.30;99.90;;;;;;5030918;28;20623;-73
2023/06/27 07:51:57;;;;;;;3.60;1.60;;;20.40;99.90;;;;;;5047111;28;20464;-77
2023/06/27 07:54:26;;;;;;;4.93;1.50;;;20.30;99.90;;;;;;5045788;28;20053;-72
2023/06/27 07:56:54;;;;;;;4.03;1.38;;;20.10;99.90;;;;;;5046772;28;20048;-75
2023/06/27 07:59:20;;;;;;;4.72;1.42;;;20.10;99.90;;;;;;5028145;28;20091;-74
2023/06/27 08:01:46;;;;;;;3.67;1.33;;;20.20;99.90;;;;;;5022774;28;20046;-73
2023/06/27 08:04:12;;;;;;;4.30;1.20;;;20.50;99.90;;;;;;5056509;28;20044;-73
2023/06/27 08:06:38;;;;;;;3.63;1.25;;;20.80;99.90;;;;;;5030402;28;20452;-74
2023/06/27 08:09:04;;;;;;;6.55;1.13;;;21.10;99.90;;;;;;5029238;28;20102;-73
2023/06/27 08:11:29;;;;;;;5.60;1.00;;;21.10;99.90;;;;;;5030346;28;20068;-73
2023/06/27 08:13:55;;;;;;;4.40;1.33;;;21.30;99.90;;;;;;5030016;28;20056;-72
2023/06/27 08:16:21;;;;;;;3.95;1.25;;;21.40;99.90;;;;;;5013718;28;20036;-75
2023/06/27 08:18:47;;;;;;;3.00;1.50;;;21.30;99.90;;;;;;5013470;28;20041;-75
2023/06/27 08:21:13;;;;;;;5.20;1.42;;;21.40;99.90;;;;;;5046414;28;20110;-70
2023/06/27 08:23:39;;;;;;;4.57;1.25;;;21.90;99.90;;;;;;5030267;28;20049;-73
2023/06/27 08:26:04;;;;;;;3.03;1.27;;;22.10;99.90;;;;;;5030702;28;20469;-77
2023/06/27 08:28:30;;;;;;;4.30;1.40;;;22.50;72.10;;;;;;5029705;28;20048;-74
2023/06/27 08:30:57;;;;;;;2.72;1.00;;;22.30;1.00;;;;;;5045600;28;20100;-76
2023/06/27 08:33:23;;;;;;;3.05;1.20;;;22.10;1.00;;;;;;5046242;28;20084;-74
2023/06/27 08:35:49;;;;;;;2.55;0.95;;;22.10;1.00;;;;;;5030644;28;20043;-73
2023/06/27 08:38:15;;;;;;;3.88;1.00;;;21.50;14.80;;;;;;5046532;28;20163;-75
2023/06/27 08:40:42;;;;;;;3.25;1.00;;;21.00;99.90;;;;;;5027706;28;20045;-76
2023/06/27 08:43:10;;;;;;;4.45;0.98;;;21.50;99.90;;;;;;5029717;28;20036;-75
2023/06/27 08:45:38;;;;;;;3.20;1.13;;;22.00;1.00;;;;;;5028275;28;20040;-74
2023/06/27 08:48:07;;;;;;;2.75;1.00;;;22.00;1.00;;;;;;5023455;28;20453;-75
2023/06/27 08:50:37;;;;;;;2.80;1.17;;;21.50;20.60;;;;;;5045649;28;20483;-73
2023/06/27 08:53:07;;;;;;;2.67;0.88;;;21.00;99.90;;;;;;5022248;28;20043;-74
2023/06/27 08:55:47;;;;;;;3.60;1.10;;;21.00;99.90;;;;;;5029740;28;20052;-72
2023/06/27 08:58:18;;;;;;;4.70;1.33;;;21.20;99.90;;;;;;5030100;28;20600;-73
2023/06/27 09:00:46;;;;;;;5.00;1.35;;;21.00;13.00;;;;;;5029412;28;20086;-74
2023/06/27 09:03:12;;;;;;;2.97;1.10;;;21.00;95.30;;;;;;5026487;28;20040;-70
2023/06/27 09:05:41;;;;;;;4.68;1.38;;;20.90;52.50;;;;;;5046921;28;20041;-75
2023/06/27 09:08:08;;;;;;;3.67;1.15;;;21.00;26.60;;;;;;5031038;28;20036;-74
2023/06/27 09:10:34;;;;;;;5.78;1.50;;;21.50;1.00;;;;;;5000140;28;20044;-70
2023/06/27 09:13:00;;;;;;;4.93;1.50;;;21.90;78.70;;;;;;5034988;28;20045;-76
2023/06/27 09:15:26;;;;;;;5.75;1.00;;;22.30;98.90;;;;;;5051280;28;20087;-73
2023/06/27 09:17:52;;;;;;;3.75;1.10;;;22.30;1.00;;;;;;5035128;28;20073;-73
2023/06/27 09:20:19;;;;;;;2.58;1.13;;;21.70;99.90;;;;;;5035004;28;20094;-73
2023/06/27 09:22:45;;;;;;;4.22;1.40;;;21.70;99.90;;;;;;5034837;28;20059;-75
2023/06/27 09:25:14;;;;;;;3.63;1.15;;;21.50;99.90;;;;;;5051900;28;20045;-72
2023/06/27 09:27:39;;;;;;;4.50;1.35;;;21.90;99.90;;;;;;5034452;28;20045;-75
2023/06/27 09:30:07;;;;;;;2.63;1.00;;;22.50;1.00;;;;;;5035093;28;20048;-73
2023/06/27 09:32:32;;;;;;;3.33;1.10;;;23.00;58.50;;;;;;5050940;28;20183;-76
2023/06/27 09:35:03;;;;;;;3.65;1.13;;;22.80;99.90;;;;;;5051468;28;20167;-76
2023/06/27 09:37:31;;;;;;;3.80;1.23;;;22.80;1.00;;;;;;5051174;28;20064;-75
2023/06/27 09:39:57;;;;;;;3.17;1.02;;;22.80;99.90;;;;;;5051100;28;20048;-75
2023/06/27 09:42:23;;;;;;;4.30;1.00;;;22.80;1.00;;;;;;5051146;28;20044;-75
2023/06/27 09:44:48;;;;;;;3.83;1.20;;;23.50;1.00;;;;;;5034059;28;20037;-75
2023/06/27 09:47:14;;;;;;;6.10;1.50;;;23.50;99.90;;;;;;5051270;28;20127;-74
2023/06/27 09:49:41;;;;;;;5.05;2.05;;;23.20;1.00;;;;;;5034394;28;20596;-76
2023/06/27 09:52:11;;;;;;;6.07;1.67;;;22.90;1.00;;;;;;5034922;28;20048;-74
2023/06/27 09:54:46;;;;;;;2.65;1.00;;;22.70;1.00;;;;;;5034182;28;20053;-75
2023/06/27 09:57:16;;;;;;;4.20;1.10;;;22.60;1.00;;;;;;5034694;28;20538;-76
2023/06/27 09:59:48;;;;;;;2.53;1.17;;;22.70;1.00;;;;;;5033755;28;20140;-76
2023/06/27 10:02:31;;;;;;;2.42;1.20;;;22.30;1.00;;;;;;5035226;28;20655;-75
2023/06/27 10:04:58;;;;;;;3.65;1.15;;;22.80;1.00;;;;;;5034241;28;20048;-77
2023/06/27 10:07:27;;;;;;;2.80;0.90;;;23.30;99.90;;;;;;5050826;28;20037;-75
2023/06/27 10:09:56;;;;;;;2.63;1.10;;;23.70;99.90;;;;;;5019200;28;20102;-74
2023/06/27 10:12:26;;;;;;;2.40;1.10;;;23.80;99.90;;;;;;5050703;28;20644;-74
2023/06/27 10:14:53;;;;;;;3.17;1.20;;;23.80;99.90;;;;;;5050778;28;20483;-73
2023/06/27 10:17:20;;;;;;;3.67;1.10;;;23.30;99.90;;;;;;5050887;28;20045;-73
2023/06/27 10:19:48;;;;;;;2.50;0.93;;;22.90;99.90;;;;;;5033757;28;20090;-77
2023/06/27 10:22:17;;;;;;;6.47;1.42;;;22.40;99.90;;;;;;5033141;28;20068;-72
2023/06/27 10:24:45;;;;;;;3.00;1.00;;;22.00;99.90;;;;;;5050811;28;20173;-72
2023/06/27 10:27:14;;;;;;;3.15;1.02;;;22.50;99.90;;;;;;5034421;28;20448;-74
2023/06/27 10:29:43;;;;;;;2.78;1.33;;;22.90;99.90;;;;;;5044322;28;20462;-72
2023/06/27 10:32:16;;;;;;;3.20;1.23;;;23.20;99.90;;;;;;5018554;28;20048;-72
2023/06/27 10:34:43;;;;;;;3.90;2.05;;;22.90;99.90;;;;;;5021758;28;20052;-75
2023/06/27 10:37:30;;;;;;;4.55;1.27;;;22.70;99.90;;;;;;5044335;28;20055;-74
2023/06/27 10:39:57;;;;;;;2.80;1.20;;;23.00;99.90;;;;;;5048539;28;20049;-75
2023/06/27 10:42:23;;;;;;;4.38;1.25;;;22.70;99.90;;;;;;5049333;28;20041;-73
2023/06/27 10:45:04;;;;;;;2.50;1.10;;;22.00;1.00;;;;;;5031522;28;20053;-73
2023/06/27 10:47:38;;;;;;;2.63;1.08;;;21.60;99.90;;;;;;5048312;28;20056;-73
2023/06/27 10:50:22;;;;;;;3.42;1.25;;;21.80;99.90;;;;;;5047207;28;20040;-72
2023/06/27 10:53:06;;;;;;;3.22;1.13;;;22.10;1.00;;;;;;5031149;28;20091;-74
2023/06/27 10:55:33;;;;;;;1.38;0.80;;;22.20;1.00;;;;;;5048320;28;20041;-73
2023/06/27 10:58:13;;;;;;;4.70;1.70;;;22.40;1.00;;;;;;5031934;28;20049;-76
2023/06/27 11:00:44;;;;;;;2.85;0.90;;;22.00;1.00;;;;;;5029022;28;20049;-75
2023/06/27 11:03:10;;;;;;;2.92;1.42;;;21.80;1.00;;;;;;5041022;28;20084;-72
2023/06/27 11:06:07;;;;;;;4.07;1.40;;;21.70;1.00;;;;;;5047637;28;20434;-73
2023/06/27 11:08:35;;;;;;;4.18;1.25;;;22.00;1.00;;;;;;5048765;28;20131;-73
2023/06/27 11:11:06;;;;;;;5.47;1.40;;;22.50;1.00;;;;;;5048588;28;20044;-76
2023/06/27 11:13:37;;;;;;;2.58;1.00;;;22.20;99.90;;;;;;5032185;28;20045;-74
2023/06/27 11:16:04;;;;;;;2.92;1.20;;;22.30;20.90;;;;;;5047810;28;20037;-76
2023/06/27 11:18:29;;;;;;;3.42;1.10;;;22.50;14.40;;;;;;5015533;28;20049;-73
2023/06/27 11:20:56;;;;;;;5.97;1.20;;;22.50;1.00;;;;;;5048988;28;20037;-75
2023/06/27 11:23:24;;;;;;;3.75;1.10;;;22.60;99.90;;;;;;5032576;28;20060;-76
2023/06/27 11:25:54;;;;;;;2.97;1.13;;;22.60;99.90;;;;;;5049528;28;20392;-77
2023/06/27 11:28:21;;;;;;;3.50;1.48;;;23.10;99.90;;;;;;5049388;28;20056;-71
2023/06/27 11:30:48;;;;;;;2.15;1.00;;;22.90;99.90;;;;;;5032364;28;20045;-78
2023/06/27 11:33:23;;;;;;;3.47;1.10;;;22.50;99.90;;;;;;5030712;28;20037;-73
2023/06/27 11:35:49;;;;;;;4.72;1.25;;;22.50;99.90;;;;;;5030592;28;20041;-74
2023/06/27 11:38:15;;;;;;;5.22;1.00;;;22.50;99.90;;;;;;5031282;28;20037;-76
2023/06/27 11:40:51;;;;;;;3.60;1.20;;;22.40;99.90;;;;;;5049015;28;20033;-73
2023/06/27 11:43:20;;;;;;;3.67;1.10;;;22.20;99.90;;;;;;5046422;28;20037;-72
2023/06/27 11:45:51;;;;;;;2.92;1.30;;;22.10;76.70;;;;;;5047595;28;20102;-76
2023/06/27 11:48:18;;;;;;;2.28;1.00;;;22.20;99.90;;;;;;5013695;28;20663;-77
2023/06/27 11:51:07;;;;;;;3.83;1.50;;;22.10;99.90;;;;;;5030941;28;20079;-78
2023/06/27 11:53:34;;;;;;;3.55;1.08;;;22.20;99.90;;;;;;5039455;28;20040;-75
2023/06/27 11:56:01;;;;;;;1.95;0.88;;;22.20;99.90;;;;;;5047624;28;20087;-74
2023/06/27 11:58:31;;;;;;;2.25;1.00;;;22.10;99.90;;;;;;5046702;28;20052;-74
2023/06/27 12:00:58;;;;;;;2.30;0.98;;;22.00;99.90;;;;;;5030950;28;20471;-75
2023/06/27 12:03:28;;;;;;;7.10;1.30;;;22.20;99.90;;;;;;5030944;28;20498;-74
2023/06/27 12:05:56;;;;;;;2.25;1.00;;;21.90;99.90;;;;;;5030886;28;20173;-76
2023/06/27 12:08:28;;;;;;;2.90;1.00;;;21.80;99.90;;;;;;5030538;28;20080;-73
2023/06/27 12:10:56;;;;;;;4.07;1.13;;;21.70;99.90;;;;;;5010512;28;20140;-75
2023/06/27 12:13:37;;;;;;;4.70;1.10;;;21.60;99.90;;;;;;5027655;28;20106;-76
2023/06/27 12:16:04;;;;;;;4.30;1.33;;;21.70;99.90;;;;;;5041089;28;20123;-76
2023/06/27 12:18:31;;;;;;;4.95;1.20;;;21.80;99.90;;;;;;5011182;28;20048;-72
2023/06/27 12:20:58;;;;;;;4.15;1.38;;;21.80;99.90;;;;;;5046109;28;20128;-73
2023/06/27 12:23:27;;;;;;;7.22;1.55;;;21.70;1.00;;;;;;5046854;28;20048;-73
2023/06/27 12:25:53;;;;;;;3.03;1.35;;;21.90;1.00;;;;;;5030066;28;20460;-75
2023/06/27 12:28:19;;;;;;;4.65;1.08;;;21.90;99.90;;;;;;5047086;28;20068;-75
2023/06/27 12:30:44;;;;;;;2.38;0.88;;;22.00;99.90;;;;;;5012951;28;20067;-75
2023/06/27 12:33:11;;;;;;;3.53;1.10;;;21.80;99.90;;;;;;5031342;28;20060;-73
2023/06/27 12:35:37;;;;;;;4.03;1.38;;;21.70;99.90;;;;;;5046423;28;20041;-71
2023/06/27 12:38:03;;;;;;;2.90;1.08;;;21.40;99.90;;;;;;5046515;28;20127;-70
2023/06/27 12:40:28;;;;;;;2.60;1.15;;;21.40;99.90;;;;;;5029415;28;20125;-73
2023/06/27 12:42:54;;;;;;;3.08;1.27;;;21.60;99.90;;;;;;5046461;28;20048;-74
2023/06/27 12:45:21;;;;;;;4.30;1.40;;;22.20;99.90;;;;;;5013622;28;20279;-76
2023/06/27 12:47:47;;;;;;;4.40;1.27;;;22.60;99.90;;;;;;5045888;28;20583;-75
2023/06/27 12:50:22;;;;;;;3.63;1.20;;;22.80;99.90;;;;;;5014234;28;20072;-75